Time;durP1;ratioP1;P1;durP2;ratioP2;P2;SDS_P1;SDS_P2;PMS_P1;PMS_P2;Temp;Humidity;BMP_temperature;BMP_pressure;BME280_temperature;BME280_humidity;BME280_pressure;Samples;Min_cycle;Max_cycle;Signal;HPM_P1;HPM_P2
2022/02/15 00:01:27;;;;;;;7.07;2.08;;;;;;;5.64;81.65;100719.25;5046314;28;20063;-75
2022/02/15 00:03:53;;;;;;;3.90;1.20;;;;;;;5.62;81.71;100723.63;5048209;28;20160;-75
2022/02/15 00:06:18;;;;;;;9.18;1.95;;;;;;;5.68;81.57;100725.28;5046896;28;20045;-75
2022/02/15 00:08:43;;;;;;;9.13;1.70;;;;;;;5.65;81.75;100725.31;5047862;28;20506;-75
2022/02/15 00:11:09;;;;;;;6.45;1.63;;;;;;;5.62;81.64;100722.75;5047623;28;20468;-74
2022/02/15 00:13:34;;;;;;;5.15;1.63;;;;;;;5.64;81.53;100720.97;5048142;28;20570;-75
2022/02/15 00:15:59;;;;;;;11.45;2.20;;;;;;;5.67;81.87;100741.84;5047875;28;20025;-74
2022/02/15 00:18:25;;;;;;;9.93;1.70;;;;;;;5.74;81.69;100743.47;5046529;28;20368;-74
2022/02/15 00:20:50;;;;;;;4.57;1.70;;;;;;;5.74;81.72;100735.63;5047878;28;20033;-74
2022/02/15 00:23:15;;;;;;;14.23;2.40;;;;;;;5.74;81.61;100735.63;5047207;28;20359;-75
2022/02/15 00:25:40;;;;;;;9.70;2.05;;;;;;;5.75;81.41;100732.13;5048193;28;20045;-75
2022/02/15 00:28:06;;;;;;;3.83;1.88;;;;;;;5.70;81.70;100726.13;5047709;28;20100;-74
2022/02/15 00:30:31;;;;;;;7.13;1.88;;;;;;;5.74;81.78;100734.75;5053093;28;20028;-75
2022/02/15 00:32:56;;;;;;;11.00;2.97;;;;;;;5.73;81.83;100733.03;5067295;28;20028;-75
2022/02/15 00:35:22;;;;;;;4.50;1.67;;;;;;;5.75;81.61;100734.75;5066681;28;20054;-76
2022/02/15 00:37:47;;;;;;;7.93;1.80;;;;;;;5.80;81.94;100739.91;5066401;28;20056;-74
2022/02/15 00:40:13;;;;;;;6.47;1.52;;;;;;;5.76;81.93;100741.72;5065196;28;20493;-72
2022/02/15 00:42:39;;;;;;;6.13;2.03;;;;;;;5.80;81.82;100747.75;5067744;28;20050;-73
2022/02/15 00:45:06;;;;;;;7.15;1.63;;;;;;;5.75;82.02;100747.81;5066653;28;20067;-73
2022/02/15 00:47:31;;;;;;;5.50;1.67;;;;;;;5.74;82.07;100745.22;5049627;28;20020;-76
2022/02/15 00:49:56;;;;;;;4.28;1.65;;;;;;;5.70;82.18;100739.19;5048662;28;20532;-74
2022/02/15 00:52:22;;;;;;;7.03;2.05;;;;;;;5.68;82.09;100734.00;5063903;28;20467;-74
2022/02/15 00:54:47;;;;;;;5.80;1.80;;;;;;;5.64;82.07;100734.94;5045998;28;20024;-74
2022/02/15 00:57:13;;;;;;;6.55;1.90;;;;;;;5.56;82.45;100745.50;5046506;28;20024;-74
2022/02/15 00:59:38;;;;;;;13.65;2.47;;;;;;;5.47;82.68;100753.44;5047258;28;20841;-74
2022/02/15 01:02:04;;;;;;;8.77;2.22;;;;;;;5.38;83.20;100756.19;5046657;28;20205;-75
2022/02/15 01:04:29;;;;;;;9.35;3.10;;;;;;;5.37;82.75;100754.47;5045706;28;20021;-74
2022/02/15 01:06:54;;;;;;;7.50;2.72;;;;;;;5.38;83.66;100764.03;5046581;28;20037;-74
2022/02/15 01:09:20;;;;;;;7.13;2.70;;;;;;;5.33;83.58;100768.47;5046177;28;20040;-73
2022/02/15 01:11:45;;;;;;;5.28;2.40;;;;;;;5.30;83.71;100767.59;5046285;28;20027;-73
2022/02/15 01:14:11;;;;;;;4.25;2.92;;;;;;;5.29;84.08;100773.72;5047174;28;20044;-73
2022/02/15 01:16:36;;;;;;;8.68;2.83;;;;;;;5.31;84.27;100771.09;5045952;28;20032;-74
2022/02/15 01:19:01;;;;;;;13.50;4.03;;;;;;;5.38;84.17;100769.25;5046975;28;20075;-73
2022/02/15 01:21:27;;;;;;;9.98;3.90;;;;;;;5.47;84.09;100771.75;5045647;28;20480;-74
2022/02/15 01:23:52;;;;;;;9.43;3.42;;;;;;;5.55;83.53;100774.25;5039242;28;20070;-75
2022/02/15 01:26:17;;;;;;;11.65;3.53;;;;;;;5.59;83.34;100777.69;5046814;28;20028;-75
2022/02/15 01:28:43;;;;;;;13.15;4.15;;;;;;;5.63;83.35;100776.78;5038743;28;20025;-75
2022/02/15 01:31:09;;;;;;;12.65;3.40;;;;;;;5.74;83.19;100784.44;5046225;28;20032;-75
2022/02/15 01:33:34;;;;;;;10.30;3.03;;;;;;;5.78;83.02;100781.75;5045908;28;20024;-74
2022/02/15 01:36:00;;;;;;;7.13;3.10;;;;;;;5.86;82.74;100783.41;5045699;28;20029;-73
2022/02/15 01:38:26;;;;;;;10.98;4.00;;;;;;;5.89;82.77;100781.59;5045588;28;20041;-73
2022/02/15 01:40:51;;;;;;;6.55;2.63;;;;;;;5.94;82.49;100792.84;5043666;28;20060;-74
2022/02/15 01:43:16;;;;;;;4.90;2.60;;;;;;;5.98;82.29;100785.84;5040134;28;20436;-73
2022/02/15 01:45:42;;;;;;;8.50;2.25;;;;;;;6.02;82.35;100797.13;5046888;28;20044;-74
2022/02/15 01:48:09;;;;;;;7.35;2.40;;;;;;;6.01;82.51;100791.03;5045815;28;20028;-74
2022/02/15 01:50:34;;;;;;;9.25;2.45;;;;;;;6.13;82.20;100795.22;5045690;28;20266;-72
2022/02/15 01:53:00;;;;;;;3.08;2.03;;;;;;;6.16;82.08;100796.91;5044738;28;20372;-74
2022/02/15 01:55:25;;;;;;;10.75;2.72;;;;;;;6.16;82.07;100796.91;5046175;28;20364;-74
2022/02/15 01:57:50;;;;;;;14.13;2.90;;;;;;;6.22;81.99;100795.94;5044232;28;20033;-73
2022/02/15 02:00:18;;;;;;;11.52;2.75;;;;;;;6.25;81.84;100798.53;5045796;28;20025;-72
2022/02/15 02:02:44;;;;;;;12.30;2.90;;;;;;;6.27;81.67;100795.00;5046331;28;20028;-73
2022/02/15 02:07:54;;;;;;;16.13;3.53;;;;;;;6.27;81.84;100792.41;5045167;28;20048;-71
2022/02/15 02:10:20;;;;;;;10.00;3.00;;;;;;;6.26;81.83;100798.50;5061015;22;20060;-72
2022/02/15 02:12:46;;;;;;;13.15;3.60;;;;;;;6.19;82.14;100794.25;5044235;28;20070;-73
2022/02/15 02:15:24;;;;;;;6.22;3.05;;;;;;;6.19;82.48;100794.25;5045981;28;20060;-72
2022/02/15 02:17:51;;;;;;;7.68;3.42;;;;;;;6.22;82.58;100796.81;5043997;28;20036;-74
2022/02/15 02:20:17;;;;;;;16.20;3.53;;;;;;;6.29;82.23;100797.59;5044522;28;20426;-73
2022/02/15 02:22:42;;;;;;;15.70;3.88;;;;;;;6.30;82.24;100794.94;5043244;28;20039;-72
2022/02/15 02:25:09;;;;;;;9.15;3.60;;;;;;;6.37;82.23;100792.22;5045463;28;20078;-74
2022/02/15 02:27:34;;;;;;;21.30;4.43;;;;;;;6.38;82.23;100789.56;5043897;28;20104;-75
2022/02/15 02:30:00;;;;;;;9.23;3.65;;;;;;;6.45;81.99;100790.34;5044499;28;20139;-73
2022/02/15 02:32:28;;;;;;;6.28;3.42;;;;;;;6.46;81.97;100797.31;5044734;28;20079;-74
2022/02/15 02:34:54;;;;;;;11.75;3.72;;;;;;;6.42;82.04;100798.25;5044638;28;20025;-73
2022/02/15 02:37:19;;;;;;;12.48;4.03;;;;;;;6.47;82.05;100803.41;5043205;28;20025;-73
2022/02/15 02:39:50;;;;;;;7.28;3.33;;;;;;;6.52;81.87;100805.06;5043120;28;20036;-72
2022/02/15 02:42:19;;;;;;;7.88;3.55;;;;;;;6.54;81.63;100808.50;5042788;28;20043;-72
2022/02/15 02:44:45;;;;;;;11.00;3.60;;;;;;;6.51;81.61;100800.72;5044275;28;20470;-68
2022/02/15 02:47:10;;;;;;;13.38;3.83;;;;;;;6.58;81.39;100811.94;5044542;28;20074;-72
2022/02/15 02:49:36;;;;;;;12.63;4.10;;;;;;;6.59;81.36;100812.81;5045040;28;20029;-72
2022/02/15 02:52:03;;;;;;;7.55;3.40;;;;;;;6.59;81.22;100818.88;5044075;28;20108;-74
2022/02/15 02:54:28;;;;;;;21.17;4.53;;;;;;;6.59;81.19;100810.19;5033320;28;20493;-73
2022/02/15 02:56:54;;;;;;;7.85;4.00;;;;;;;6.56;81.17;100819.81;5043954;28;20112;-73
2022/02/15 02:59:20;;;;;;;14.55;4.05;;;;;;;6.66;80.87;100817.91;5044178;28;20415;-73
2022/02/15 03:01:45;;;;;;;14.18;4.07;;;;;;;6.69;80.66;100816.97;5043036;28;20391;-74
2022/02/15 03:04:10;;;;;;;17.50;4.50;;;;;;;6.69;80.81;100824.84;5042798;28;20033;-74
2022/02/15 03:06:36;;;;;;;14.00;4.53;;;;;;;6.66;80.55;100824.91;5033643;28;20029;-73
2022/02/15 03:09:02;;;;;;;14.77;4.65;;;;;;;6.63;80.82;100825.81;5042708;28;20025;-75
2022/02/15 03:11:27;;;;;;;14.68;4.35;;;;;;;6.61;81.14;100826.72;5043239;28;20040;-73
2022/02/15 03:13:53;;;;;;;10.93;4.05;;;;;;;6.58;81.17;100827.63;5043548;28;20033;-75
2022/02/15 03:16:18;;;;;;;17.95;4.50;;;;;;;6.60;81.13;100831.09;5043550;28;20083;-74
2022/02/15 03:18:43;;;;;;;12.65;4.38;;;;;;;6.62;81.03;100834.53;5040220;28;20052;-73
2022/02/15 03:21:09;;;;;;;15.93;5.40;;;;;;;6.56;81.16;100843.38;5043906;28;20115;-73
2022/02/15 03:23:34;;;;;;;11.90;4.35;;;;;;;6.55;81.19;100843.41;5038359;28;20036;-74
2022/02/15 03:25:59;;;;;;;17.50;4.60;;;;;;;6.55;81.42;100841.66;5037726;28;20037;-73
2022/02/15 03:28:25;;;;;;;11.13;4.43;;;;;;;6.57;81.35;100842.47;5034605;28;20032;-73
2022/02/15 03:30:50;;;;;;;11.63;4.38;;;;;;;6.58;81.25;100848.59;5039745;28;20475;-74
2022/02/15 03:33:15;;;;;;;15.07;4.63;;;;;;;6.52;81.36;100854.78;5043267;28;20033;-73
2022/02/15 03:35:41;;;;;;;8.10;4.18;;;;;;;6.49;81.59;100853.97;5044596;28;20033;-72
2022/02/15 03:38:06;;;;;;;10.73;4.18;;;;;;;6.50;81.59;100863.56;5042726;28;20040;-73
2022/02/15 03:43:15;;;;;;;17.45;5.68;;;;;;;6.49;81.49;100877.53;5041041;28;20044;-73
2022/02/15 03:45:41;;;;;;;21.60;5.07;;;;;;;6.51;81.62;100876.63;5043413;28;20458;-73
2022/02/15 03:48:07;;;;;;;13.02;4.70;;;;;;;6.56;81.38;100882.66;5044254;28;20029;-73
2022/02/15 03:50:32;;;;;;;17.98;5.05;;;;;;;6.59;81.45;100888.72;5035281;28;20044;-73
2022/02/15 03:52:58;;;;;;;13.13;4.85;;;;;;;6.67;81.08;100881.59;5043180;28;20025;-72
2022/02/15 03:55:23;;;;;;;16.20;4.82;;;;;;;6.68;81.05;100885.94;5043974;28;20104;-71
2022/02/15 03:57:48;;;;;;;14.45;4.95;;;;;;;6.68;80.75;100892.06;5043087;28;20402;-74
2022/02/15 04:00:15;;;;;;;12.73;5.07;;;;;;;6.74;80.71;100900.72;5043659;28;20032;-72
2022/02/15 04:02:40;;;;;;;13.68;4.13;;;;;;;6.73;80.75;100897.22;5041505;28;20029;-73
2022/02/15 04:05:06;;;;;;;14.57;5.75;;;;;;;6.77;80.70;100905.91;5040008;28;20051;-73
2022/02/15 04:07:32;;;;;;;12.63;4.43;;;;;;;6.78;80.66;100905.88;5043159;28;20108;-72
2022/02/15 04:09:57;;;;;;;18.60;4.75;;;;;;;6.82;80.52;100911.91;5043451;28;20131;-73
2022/02/15 04:12:22;;;;;;;12.10;4.15;;;;;;;6.80;80.51;100911.94;5043816;28;20429;-72
2022/02/15 04:14:48;;;;;;;18.67;4.40;;;;;;;6.87;80.39;100914.44;5043741;28;20017;-73
2022/02/15 04:17:14;;;;;;;16.20;4.72;;;;;;;6.84;80.44;100918.00;5042965;28;20025;-72
2022/02/15 04:19:40;;;;;;;16.48;4.70;;;;;;;6.87;80.46;100914.44;5043385;28;20136;-71
2022/02/15 04:22:06;;;;;;;14.95;4.30;;;;;;;6.88;80.48;100924.91;5042747;28;20486;-71
2022/02/15 04:24:31;;;;;;;12.13;4.53;;;;;;;6.90;80.31;100928.38;5043531;28;20060;-71
2022/02/15 04:26:56;;;;;;;15.13;4.55;;;;;;;6.91;80.29;100927.47;5046851;28;20028;-71
2022/02/15 04:29:22;;;;;;;19.42;4.60;;;;;;;6.93;80.47;100927.44;5043834;28;20031;-71
2022/02/15 04:31:47;;;;;;;12.65;4.30;;;;;;;6.91;80.40;100923.97;5045341;28;20078;-71
2022/02/15 04:34:12;;;;;;;11.35;4.40;;;;;;;6.89;80.39;100925.78;5047239;28;20091;-72
2022/02/15 04:36:38;;;;;;;14.27;4.65;;;;;;;6.93;80.32;100932.69;5046139;28;20536;-73
2022/02/15 04:39:03;;;;;;;13.88;4.15;;;;;;;6.87;80.42;100941.50;5043929;28;20033;-71
2022/02/15 04:41:28;;;;;;;17.60;3.75;;;;;;;6.89;80.42;100931.84;5042936;28;20376;-71
2022/02/15 04:43:54;;;;;;;14.23;4.78;;;;;;;6.95;80.02;100941.38;5044160;28;20533;-71
2022/02/15 04:46:19;;;;;;;14.73;4.03;;;;;;;6.92;80.09;100941.41;5043359;28;20040;-71
2022/02/15 04:48:44;;;;;;;15.73;3.70;;;;;;;6.93;80.00;100935.31;5046659;28;20029;-71
2022/02/15 04:51:11;;;;;;;10.02;3.08;;;;;;;6.90;80.16;100943.22;5041911;28;20044;-73
2022/02/15 04:53:36;;;;;;;15.48;3.33;;;;;;;6.90;80.08;100936.22;5050923;28;20035;-72
2022/02/15 04:56:02;;;;;;;17.08;3.65;;;;;;;6.88;79.79;100942.38;5046329;28;20016;-73
2022/02/15 04:58:29;;;;;;;13.57;3.03;;;;;;;6.89;80.02;100950.19;5042214;28;20503;-73
2022/02/15 05:00:54;;;;;;;13.73;3.35;;;;;;;6.91;79.79;100964.16;5044127;28;20152;-72
2022/02/15 05:03:20;;;;;;;12.60;2.97;;;;;;;6.93;79.75;100972.81;5036455;28;20558;-72
2022/02/15 05:05:45;;;;;;;15.77;2.75;;;;;;;6.93;79.58;100970.22;5038319;28;20453;-70
2022/02/15 05:08:10;;;;;;;17.58;3.47;;;;;;;6.97;79.51;100968.41;5046554;28;20049;-71
2022/02/15 05:10:37;;;;;;;15.25;2.53;;;;;;;6.95;79.59;100976.28;5043438;28;20106;-71
2022/02/15 05:13:06;;;;;;;30.77;3.05;;;;;;;6.89;79.59;100978.16;5037401;28;20029;-72
2022/02/15 05:15:32;;;;;;;17.40;2.58;;;;;;;7.03;79.19;100981.41;5026522;28;20451;-71
2022/02/15 05:17:57;;;;;;;26.08;3.33;;;;;;;6.98;79.28;100983.22;5026712;28;20021;-73
2022/02/15 05:20:22;;;;;;;8.70;1.90;;;;;;;7.04;78.90;100992.75;5030553;28;20029;-72
2022/02/15 05:22:49;;;;;;;24.77;2.78;;;;;;;6.92;78.66;100988.56;5042578;28;20079;-73
2022/02/15 05:25:14;;;;;;;17.77;2.70;;;;;;;6.98;78.18;100993.72;5038422;28;20419;-71
2022/02/15 05:27:40;;;;;;;19.67;2.90;;;;;;;6.92;78.09;100993.81;5040894;28;20025;-73
2022/02/15 05:30:06;;;;;;;11.35;2.42;;;;;;;6.89;77.77;100996.50;5043338;28;20013;-73
2022/02/15 05:32:31;;;;;;;16.63;2.25;;;;;;;6.97;77.64;101001.59;5036933;28;20065;-73
2022/02/15 05:34:57;;;;;;;14.18;2.40;;;;;;;6.95;77.65;100999.00;5033452;28;20116;-73
2022/02/15 05:37:22;;;;;;;11.13;2.50;;;;;;;6.92;77.97;100996.44;5042290;28;20041;-72
2022/02/15 05:39:47;;;;;;;10.70;2.30;;;;;;;6.94;77.72;100986.81;5044173;28;20058;-73
2022/02/15 05:42:12;;;;;;;12.25;2.20;;;;;;;6.98;77.58;100998.94;5045119;28;20112;-72
2022/02/15 05:44:38;;;;;;;14.88;2.20;;;;;;;6.93;77.13;100995.56;5042365;28;20039;-73
2022/02/15 05:47:03;;;;;;;14.50;2.08;;;;;;;6.89;77.18;101004.38;5030103;28;20067;-73
2022/02/15 05:49:29;;;;;;;12.73;2.50;;;;;;;6.95;76.60;101010.34;5044939;28;20086;-75
2022/02/15 05:51:54;;;;;;;14.27;2.78;;;;;;;6.92;76.61;100999.91;5046210;28;20025;-73
2022/02/15 05:54:20;;;;;;;13.95;2.38;;;;;;;6.88;76.80;101000.88;5038585;28;20029;-75
2022/02/15 05:56:45;;;;;;;11.65;2.50;;;;;;;6.80;77.49;101010.59;5038989;28;20017;-74
2022/02/15 05:59:10;;;;;;;10.77;2.42;;;;;;;6.82;76.80;101012.31;5045110;28;20100;-71
2022/02/15 06:01:36;;;;;;;14.82;3.08;;;;;;;6.85;76.81;101016.63;5045977;28;20025;-73
2022/02/15 06:04:09;;;;;;;12.05;2.85;;;;;;;6.87;76.64;101012.25;5045707;28;20025;-72
2022/02/15 06:06:35;;;;;;;12.50;2.60;;;;;;;6.87;76.73;101014.88;5043582;28;20028;-72
2022/02/15 06:09:00;;;;;;;10.40;2.50;;;;;;;6.86;76.42;101022.75;5041391;28;20021;-73
2022/02/15 06:11:26;;;;;;;20.20;3.33;;;;;;;6.81;76.45;101021.03;5033987;28;20072;-73
2022/02/15 06:13:55;;;;;;;18.23;3.17;;;;;;;6.81;76.01;101018.41;5028406;28;20053;-74
2022/02/15 06:16:20;;;;;;;18.52;2.80;;;;;;;6.82;75.95;101019.28;5031483;28;20523;-72
2022/02/15 06:18:45;;;;;;;22.88;4.75;;;;;;;6.69;76.24;101031.72;5034434;28;20175;-72
2022/02/15 06:21:11;;;;;;;11.27;2.35;;;;;;;6.65;76.40;101024.81;5025665;28;20024;-72
2022/02/15 06:23:36;;;;;;;10.82;2.47;;;;;;;6.65;76.28;101022.19;5024037;28;20056;-73
2022/02/15 06:26:01;;;;;;;17.13;2.60;;;;;;;6.61;76.82;101025.72;5050139;28;20036;-73
2022/02/15 06:28:27;;;;;;;7.10;2.53;;;;;;;6.59;76.92;101027.50;5040831;28;20063;-73
2022/02/15 06:30:52;;;;;;;18.95;2.95;;;;;;;6.54;77.15;101023.16;5041323;28;20031;-75
2022/02/15 06:33:17;;;;;;;16.95;2.55;;;;;;;6.54;77.08;101023.16;5044409;28;20025;-72
2022/02/15 06:35:43;;;;;;;22.00;3.40;;;;;;;6.52;77.37;101024.97;5039315;28;20175;-72
2022/02/15 06:38:08;;;;;;;14.52;3.03;;;;;;;6.42;77.23;101023.34;5036491;28;20057;-70
2022/02/15 06:40:33;;;;;;;14.55;3.15;;;;;;;6.36;77.75;101018.19;5042746;28;20033;-72
2022/02/15 06:42:59;;;;;;;10.38;2.97;;;;;;;6.23;78.11;101026.19;5044619;28;20044;-72
2022/02/15 06:45:24;;;;;;;18.50;3.30;;;;;;;6.16;78.15;101035.03;5041554;28;20022;-72
2022/02/15 06:47:49;;;;;;;17.65;3.85;;;;;;;6.00;78.91;101036.94;5043905;28;20198;-72
2022/02/15 06:50:15;;;;;;;16.80;2.90;;;;;;;5.93;79.17;101044.84;5038395;28;20079;-72
2022/02/15 06:52:41;;;;;;;17.90;3.35;;;;;;;5.91;79.27;101035.28;5041855;28;20029;-73
2022/02/15 06:55:07;;;;;;;11.45;2.88;;;;;;;5.96;79.18;101043.94;5037936;28;20542;-72
2022/02/15 06:57:33;;;;;;;22.98;3.95;;;;;;;6.02;78.95;101045.63;5038881;28;20076;-74
2022/02/15 06:59:58;;;;;;;15.05;3.30;;;;;;;6.07;78.48;101049.09;5036262;28;20061;-71
2022/02/15 07:02:23;;;;;;;20.88;3.20;;;;;;;6.11;78.25;101052.53;5041383;28;20120;-73
2022/02/15 07:04:49;;;;;;;12.23;3.10;;;;;;;6.12;77.70;101065.59;5041298;28;20112;-74
2022/02/15 07:07:14;;;;;;;12.02;2.90;;;;;;;6.19;77.35;101067.25;5044318;28;20033;-74
2022/02/15 07:09:40;;;;;;;11.02;2.83;;;;;;;6.26;77.12;101070.66;5039389;28;20479;-74
2022/02/15 07:12:07;;;;;;;12.30;3.15;;;;;;;6.26;76.88;101082.91;5044365;28;20042;-75
2022/02/15 07:14:33;;;;;;;14.93;3.08;;;;;;;6.34;76.48;101081.03;5043106;28;20110;-74
2022/02/15 07:16:58;;;;;;;17.38;3.15;;;;;;;6.40;76.34;101080.09;5043945;28;20091;-73
2022/02/15 07:19:26;;;;;;;12.23;2.67;;;;;;;6.45;76.22;101087.00;5043949;28;20040;-75
2022/02/15 07:21:52;;;;;;;13.50;2.85;;;;;;;6.49;76.33;101089.56;5043610;28;20116;-74
2022/02/15 07:24:18;;;;;;;15.85;3.10;;;;;;;6.42;76.59;101096.66;5044140;28;20116;-74
2022/02/15 07:26:43;;;;;;;13.38;3.03;;;;;;;6.44;76.77;101094.88;5044667;28;20081;-73
2022/02/15 07:29:08;;;;;;;18.77;2.97;;;;;;;6.49;76.41;101095.69;5037580;28;20030;-72
2022/02/15 07:31:34;;;;;;;20.83;4.55;;;;;;;6.51;76.52;101096.53;5037969;28;20087;-72
2022/02/15 07:33:59;;;;;;;16.42;2.30;;;;;;;6.53;76.35;101097.38;5016980;28;20033;-71
2022/02/15 07:36:24;;;;;;;15.90;2.92;;;;;;;6.54;76.18;101103.50;5021045;28;20320;-72
2022/02/15 07:38:50;;;;;;;14.82;2.47;;;;;;;6.51;76.51;101093.94;5023104;28;20074;-73
2022/02/15 07:41:15;;;;;;;11.35;2.70;;;;;;;6.55;76.33;101103.47;5021948;28;20148;-71
2022/02/15 07:43:40;;;;;;;10.15;2.35;;;;;;;6.55;76.55;101110.44;5018997;28;20052;-71
2022/02/15 07:46:06;;;;;;;11.10;2.30;;;;;;;6.55;76.57;101115.69;5021617;28;20122;-72
2022/02/15 07:48:32;;;;;;;11.25;2.50;;;;;;;6.49;76.57;101106.16;5019157;28;20044;-73
2022/02/15 07:50:57;;;;;;;21.67;3.00;;;;;;;6.62;76.31;101114.72;5019596;28;20021;-73
2022/02/15 07:53:23;;;;;;;17.35;2.90;;;;;;;6.61;76.10;101120.84;5023314;28;20017;-73
2022/02/15 07:55:48;;;;;;;12.98;2.78;;;;;;;6.67;75.37;101109.41;5020645;28;20029;-72
2022/02/15 07:58:14;;;;;;;14.85;3.10;;;;;;;6.70;75.57;101109.38;5022888;28;20021;-72
2022/02/15 08:00:40;;;;;;;14.82;2.67;;;;;;;6.79;75.05;101116.25;5026233;28;20459;-73
2022/02/15 08:03:05;;;;;;;18.98;3.35;;;;;;;6.87;74.78;101116.16;5027092;28;20068;-73
2022/02/15 08:05:31;;;;;;;15.82;2.38;;;;;;;6.88;74.49;101117.88;5024315;28;20025;-71
2022/02/15 08:07:57;;;;;;;13.65;2.83;;;;;;;6.89;74.75;101120.47;5026887;28;20041;-70
2022/02/15 08:10:24;;;;;;;14.57;2.95;;;;;;;7.01;74.61;101118.59;5027125;28;20071;-73
2022/02/15 08:12:55;;;;;;;10.95;2.40;;;;;;;6.93;74.91;101118.69;5025926;28;20017;-71
2022/02/15 08:15:30;;;;;;;14.75;3.25;;;;;;;6.96;74.51;101121.25;5024962;28;20862;-73
2022/02/15 08:17:56;;;;;;;13.40;2.42;;;;;;;7.11;74.11;101128.03;5027058;28;20499;-71
2022/02/15 08:20:22;;;;;;;17.67;3.28;;;;;;;7.20;74.00;101129.66;5025441;28;20045;-72
2022/02/15 08:22:47;;;;;;;13.82;2.63;;;;;;;7.27;73.17;101126.03;5025125;28;20139;-70
2022/02/15 08:25:13;;;;;;;15.90;2.63;;;;;;;7.30;72.43;101133.88;5026267;28;20062;-71
2022/02/15 08:27:38;;;;;;;17.63;2.22;;;;;;;7.22;72.76;101133.09;5026386;28;20079;-71
2022/02/15 08:30:04;;;;;;;11.70;2.17;;;;;;;7.18;72.64;101137.53;5020830;28;20017;-75
2022/02/15 08:32:29;;;;;;;11.25;2.33;;;;;;;7.15;73.10;101132.34;5009681;28;20079;-74
2022/02/15 08:34:55;;;;;;;17.85;2.63;;;;;;;7.07;73.14;101135.06;5017690;28;20991;-72
2022/02/15 08:37:20;;;;;;;14.70;2.38;;;;;;;7.08;73.30;101134.16;5026460;28;20495;-72
2022/02/15 08:39:46;;;;;;;17.92;2.63;;;;;;;7.14;73.15;101132.38;5018581;28;20106;-72
2022/02/15 08:42:12;;;;;;;23.33;2.28;;;;;;;7.18;73.01;101132.28;5021615;28;20017;-72
2022/02/15 08:44:37;;;;;;;15.80;2.13;;;;;;;7.20;72.53;101129.66;5020373;28;20034;-73
2022/02/15 08:47:06;;;;;;;18.65;2.90;;;;;;;7.27;72.41;101133.91;5027017;28;20390;-74
2022/02/15 08:49:33;;;;;;;10.95;2.20;;;;;;;7.37;72.41;101128.53;5020205;28;20311;-74
2022/02/15 08:51:58;;;;;;;16.27;2.47;;;;;;;7.49;71.85;101130.94;5022392;28;20029;-72
2022/02/15 08:54:23;;;;;;;14.65;2.25;;;;;;;7.41;71.70;101133.69;5027185;28;20043;-71
2022/02/15 08:56:49;;;;;;;18.40;2.05;;;;;;;7.37;71.71;101136.41;5026663;28;20027;-72
2022/02/15 08:59:14;;;;;;;12.48;2.95;;;;;;;7.33;70.71;101133.81;5023109;28;20032;-67
2022/02/15 09:01:40;;;;;;;17.25;3.35;;;;;;;7.16;70.07;101138.44;5026741;28;20566;-72
2022/02/15 09:04:05;;;;;;;13.80;2.00;;;;;;;7.01;70.59;101140.38;5026800;28;20017;-73
2022/02/15 09:06:32;;;;;;;16.45;2.80;;;;;;;6.85;71.63;101147.59;5024279;28;20415;-72
2022/02/15 09:08:58;;;;;;;12.57;2.13;;;;;;;6.83;71.09;101139.75;5026570;28;20391;-72
2022/02/15 09:11:23;;;;;;;12.50;2.33;;;;;;;6.83;70.95;101158.09;5025164;28;20037;-72
2022/02/15 09:13:48;;;;;;;12.48;2.13;;;;;;;6.85;71.46;101149.34;5026931;28;20082;-71
2022/02/15 09:16:14;;;;;;;18.58;2.65;;;;;;;6.80;71.80;101146.78;5027266;28;20033;-73
2022/02/15 09:18:39;;;;;;;20.60;2.75;;;;;;;6.77;71.58;101139.84;5026916;28;20041;-73
2022/02/15 09:21:04;;;;;;;15.57;2.28;;;;;;;6.92;71.32;101144.00;5026978;28;20467;-73
2022/02/15 09:23:30;;;;;;;12.77;3.42;;;;;;;6.92;71.48;101141.38;5023025;28;20091;-73
2022/02/15 09:25:59;;;;;;;15.30;2.22;;;;;;;7.02;71.32;101143.88;5025088;28;20036;-73
2022/02/15 09:28:24;;;;;;;;;;;;;;;7.16;71.03;101146.28;5025745;28;20063;-72
2022/02/15 09:30:54;;;;;;;13.00;1.83;;;;;;;7.17;70.35;101145.41;5026656;28;19960;-73
2022/02/15 09:33:21;;;;;;;20.50;2.55;;;;;;;7.10;69.76;101143.78;5025236;28;20511;-72
2022/02/15 09:35:46;;;;;;;12.07;1.90;;;;;;;7.13;69.89;101154.22;5025876;28;20108;-70
2022/02/15 09:38:11;;;;;;;12.20;2.35;;;;;;;7.19;69.35;101144.50;5023848;28;20474;-72
2022/02/15 09:40:37;;;;;;;16.05;2.17;;;;;;;7.24;68.63;101146.19;5025788;28;20120;-72
2022/02/15 09:43:03;;;;;;;10.85;2.00;;;;;;;7.28;67.91;101148.75;5025497;28;20415;-71
2022/02/15 09:45:28;;;;;;;15.68;2.03;;;;;;;7.28;67.69;101143.50;5024805;28;20021;-71
2022/02/15 09:47:55;;;;;;;10.80;2.15;;;;;;;7.45;68.17;101132.75;5025596;28;20506;-71
2022/02/15 09:50:21;;;;;;;14.15;2.13;;;;;;;7.55;67.61;101146.56;5024240;28;20036;-72
2022/02/15 09:52:47;;;;;;;14.38;1.85;;;;;;;7.56;65.83;101135.19;5024043;28;20132;-71
2022/02/15 09:55:13;;;;;;;10.30;1.73;;;;;;;7.63;66.67;101141.22;5025170;28;20071;-71
2022/02/15 09:57:38;;;;;;;10.73;2.15;;;;;;;7.69;67.12;101142.84;5025653;28;20485;-73
2022/02/15 10:00:04;;;;;;;9.18;1.92;;;;;;;7.80;65.73;101140.06;5025664;28;20098;-73
2022/02/15 10:02:34;;;;;;;12.90;1.73;;;;;;;7.87;64.74;101135.56;5024446;28;20328;-73
2022/02/15 10:05:01;;;;;;;8.80;2.13;;;;;;;7.92;64.91;101138.97;5026460;28;20108;-72
2022/02/15 10:07:26;;;;;;;10.93;2.05;;;;;;;7.87;64.48;101123.31;5023523;28;20040;-72
2022/02/15 10:09:54;;;;;;;10.73;1.77;;;;;;;7.88;62.62;101108.41;5020751;28;20034;-71
2022/02/15 10:12:20;;;;;;;8.88;1.73;;;;;;;7.79;62.06;101112.94;5023398;28;20108;-72
2022/02/15 10:14:47;;;;;;;7.43;1.73;;;;;;;7.72;62.51;101095.59;5024562;28;20104;-72
2022/02/15 10:17:15;;;;;;;9.15;1.63;;;;;;;7.79;62.75;101098.97;5024318;28;20459;-72
2022/02/15 10:19:41;;;;;;;6.85;1.73;;;;;;;7.86;62.66;101120.72;5025153;28;20005;-72
2022/02/15 10:22:07;;;;;;;8.77;2.63;;;;;;;7.90;62.34;101104.91;5022969;28;20471;-72
2022/02/15 10:24:35;;;;;;;12.95;2.20;;;;;;;8.01;62.79;101104.66;5023622;28;20067;-72
2022/02/15 10:27:03;;;;;;;9.57;1.60;;;;;;;8.09;62.51;101110.66;5025596;28;20483;-73
2022/02/15 10:29:31;;;;;;;10.30;2.40;;;;;;;8.25;62.61;101110.34;5024011;28;20043;-72
2022/02/15 10:32:05;;;;;;;9.43;1.70;;;;;;;8.38;62.98;101103.09;5023383;28;20099;-73
2022/02/15 10:34:31;;;;;;;7.60;1.98;;;;;;;8.45;62.65;101112.59;5023930;28;20730;-73
2022/02/15 10:37:06;;;;;;;8.25;2.17;;;;;;;8.50;63.65;101101.97;5022305;28;20059;-72
2022/02/15 10:39:41;;;;;;;11.10;1.80;;;;;;;8.62;63.06;101102.63;5022624;28;20087;-73
2022/02/15 10:42:14;;;;;;;6.22;2.10;;;;;;;8.76;62.79;101105.81;5024861;28;20468;-72
2022/02/15 10:45:00;;;;;;;11.52;2.05;;;;;;;8.79;63.01;101095.25;5025864;28;20025;-71
2022/02/15 10:47:28;;;;;;;10.32;1.98;;;;;;;8.76;62.68;101094.47;5025435;28;20385;-73
2022/02/15 10:49:59;;;;;;;9.43;1.27;;;;;;;8.68;62.74;101100.75;5025098;28;20035;-72
2022/02/15 10:52:25;;;;;;;11.10;1.83;;;;;;;8.57;62.37;101100.97;5021950;28;20201;-72
2022/02/15 10:54:50;;;;;;;7.72;1.42;;;;;;;8.46;62.25;101116.09;5023047;28;20040;-72
2022/02/15 10:57:17;;;;;;;16.65;2.50;;;;;;;8.58;62.19;101122.88;5022330;28;20095;-72
2022/02/15 10:59:43;;;;;;;13.43;1.85;;;;;;;8.68;62.35;101126.16;5023489;28;20056;-74
2022/02/15 11:02:15;;;;;;;16.65;1.90;;;;;;;8.67;61.24;101116.56;5024511;28;20093;-72
2022/02/15 11:04:41;;;;;;;8.80;1.80;;;;;;;8.66;61.29;101109.56;5024759;28;20412;-73
2022/02/15 11:07:09;;;;;;;12.30;2.63;;;;;;;8.80;61.52;101112.78;5024298;28;20563;-73
2022/02/15 11:09:43;;;;;;;15.10;2.22;;;;;;;8.79;62.23;101108.38;5023117;28;20069;-70
2022/02/15 11:12:16;;;;;;;9.70;1.80;;;;;;;8.98;61.99;101108.84;5021696;28;20052;-73
2022/02/15 11:14:42;;;;;;;8.20;1.80;;;;;;;8.93;61.68;101104.59;5023840;28;20482;-73
2022/02/15 11:17:15;;;;;;;6.47;1.33;;;;;;;8.86;60.38;101109.13;5023586;28;20029;-73
2022/02/15 11:19:42;;;;;;;6.70;1.95;;;;;;;8.71;60.65;101105.06;5027558;28;20024;-74
2022/02/15 11:22:16;;;;;;;10.82;1.70;;;;;;;8.85;60.67;101097.75;5034098;28;20049;-72
2022/02/15 11:24:42;;;;;;;3.30;1.40;;;;;;;8.80;60.32;101090.88;5036454;28;20043;-73
2022/02/15 11:27:18;;;;;;;9.02;1.50;;;;;;;8.97;59.03;101090.47;5031467;28;20021;-70